Time;durP1;ratioP1;P1;durP2;ratioP2;P2;SDS_P1;SDS_P2;PMS_P1;PMS_P2;Temp;Humidity;BMP_temperature;BMP_pressure;BME280_temperature;BME280_humidity;BME280_pressure;Samples;Min_cycle;Max_cycle;Signal;HPM_P1;HPM_P2
2023/01/15 00:01:03;;;;;;;14.23;12.77;;;;;;;19.34;57.29;101484.06;5060507;28;20045;-59
2023/01/15 00:03:31;;;;;;;14.45;13.00;;;;;;;19.33;57.05;101485.91;5052689;28;20045;-59
2023/01/15 00:06:02;;;;;;;13.98;11.60;;;;;;;19.32;57.58;101477.94;5053158;28;20048;-59
2023/01/15 00:08:29;;;;;;;12.85;11.55;;;;;;;19.30;57.41;101483.44;5053154;28;20054;-58
2023/01/15 00:10:56;;;;;;;15.18;13.27;;;;;;;19.29;57.61;101478.22;5052555;28;20040;-59
2023/01/15 00:13:24;;;;;;;12.80;11.50;;;;;;;19.29;57.93;101483.56;5052469;28;20052;-59
2023/01/15 00:15:51;;;;;;;13.65;11.82;;;;;;;19.26;57.65;101473.91;5052770;28;20049;-59
2023/01/15 00:18:18;;;;;;;13.95;12.52;;;;;;;19.26;57.31;101479.28;5052787;28;20045;-53
2023/01/15 00:20:46;;;;;;;13.60;12.30;;;;;;;19.25;57.35;101478.44;5052823;28;20494;-50
2023/01/15 00:27:37;;;;;;;13.48;12.02;;;;;;;19.24;57.34;101471.34;5051954;28;20064;-53
2023/01/15 00:28:47;;;;;;;14.75;12.48;;;;;;;19.23;57.05;101468.78;5051469;28;20486;-58
2023/01/15 00:31:15;;;;;;;15.18;12.07;;;;;;;19.22;56.35;101467.91;5051568;28;20079;-59
2023/01/15 00:33:43;;;;;;;12.60;11.18;;;;;;;19.21;56.13;101455.47;5057743;28;20044;-58
2023/01/15 00:36:10;;;;;;;13.75;12.07;;;;;;;19.20;56.67;101452.88;5072160;28;20110;-59
2023/01/15 00:38:39;;;;;;;12.75;11.52;;;;;;;19.20;55.87;101460.94;5072071;28;20588;-58
2023/01/15 00:41:06;;;;;;;13.75;12.45;;;;;;;19.18;55.73;101455.69;5072291;28;20044;-59
2023/01/15 00:43:34;;;;;;;14.18;12.35;;;;;;;19.18;55.65;101449.47;5027330;28;1246011;-59
2023/01/15 00:46:03;;;;;;;13.25;11.85;;;;;;;19.18;55.57;101449.47;5053199;28;20048;-59
2023/01/15 00:48:31;;;;;;;13.65;11.65;;;;;;;19.17;55.43;101447.78;5053402;28;20045;-50
2023/01/15 00:50:58;;;;;;;13.43;12.02;;;;;;;19.16;54.92;101444.25;5052790;28;20044;-50
2023/01/15 00:53:25;;;;;;;14.50;11.93;;;;;;;19.15;54.88;101433.59;5053011;28;20383;-50
2023/01/15 00:55:53;;;;;;;14.23;11.35;;;;;;;19.16;54.87;101435.31;5053093;28;20041;-53
2023/01/15 00:58:20;;;;;;;13.57;12.18;;;;;;;19.15;54.81;101426.41;5052935;28;20053;-58
2023/01/15 01:00:55;;;;;;;14.10;12.70;;;;;;;19.14;54.55;101421.16;5052809;28;20048;-59
2023/01/15 01:03:26;;;;;;;14.27;12.65;;;;;;;19.13;54.75;101425.66;5053179;28;20053;-58
2023/01/15 01:05:58;;;;;;;13.27;11.65;;;;;;;19.14;54.86;101423.84;5051833;28;20491;-58
2023/01/15 01:08:25;;;;;;;12.97;11.53;;;;;;;19.14;54.19;101427.38;5051967;28;20056;-49
2023/01/15 01:11:08;;;;;;;13.32;11.93;;;;;;;19.14;54.32;101430.06;5052665;28;20044;-51
2023/01/15 01:13:37;;;;;;;13.85;12.30;;;;;;;19.13;54.25;101412.25;5051972;28;20053;-50
2023/01/15 01:16:19;;;;;;;13.50;12.10;;;;;;;19.12;53.95;101418.59;5052924;28;20495;-50
2023/01/15 01:18:47;;;;;;;14.70;12.52;;;;;;;19.12;53.55;101421.28;5053097;28;20053;-51
2023/01/15 01:21:14;;;;;;;17.23;13.00;;;;;;;19.12;53.30;101410.56;5051900;28;20053;-50
2023/01/15 01:23:42;;;;;;;14.15;12.75;;;;;;;19.12;53.43;101406.97;5064853;28;20044;-53
2023/01/15 01:26:09;;;;;;;13.38;11.95;;;;;;;19.11;53.32;101395.41;5070896;28;20055;-50
2023/01/15 01:28:37;;;;;;;13.55;12.15;;;;;;;19.11;52.93;101402.59;5073126;28;20075;-51
2023/01/15 01:31:06;;;;;;;14.15;12.73;;;;;;;19.10;52.96;101407.13;5072715;28;20047;-53
2023/01/15 01:33:34;;;;;;;14.05;12.60;;;;;;;19.10;52.89;101409.78;5068155;28;20053;-51
2023/01/15 01:36:02;;;;;;;13.32;11.48;;;;;;;19.10;52.79;101399.06;5052678;28;20475;-51
2023/01/15 01:38:30;;;;;;;12.60;11.40;;;;;;;19.10;52.69;101408.94;5052533;28;20061;-52
2023/01/15 01:40:58;;;;;;;14.00;12.20;;;;;;;19.09;52.57;101402.72;5056040;28;20487;-51
2023/01/15 01:43:29;;;;;;;12.20;10.90;;;;;;;19.08;52.70;101384.91;5056082;28;20059;-51
2023/01/15 01:45:56;;;;;;;13.38;11.60;;;;;;;19.08;52.26;101390.28;5066482;28;20044;-53
2023/01/15 01:48:32;;;;;;;13.07;11.73;;;;;;;19.09;52.62;101391.13;5074719;28;20052;-49
2023/01/15 01:51:01;;;;;;;12.95;11.68;;;;;;;19.08;52.28;101392.97;5075038;28;20057;-52
2023/01/15 01:53:31;;;;;;;12.30;11.05;;;;;;;19.07;52.15;101388.56;5074580;28;20055;-53
2023/01/15 01:55:59;;;;;;;12.93;11.57;;;;;;;19.07;52.04;101395.75;5075461;28;20037;-54
2023/01/15 01:58:31;;;;;;;13.07;11.75;;;;;;;19.07;51.86;101396.59;5074554;28;20062;-59
2023/01/15 02:01:00;;;;;;;13.68;11.63;;;;;;;19.07;51.71;101398.44;5075623;28;20406;-58
2023/01/15 02:03:36;;;;;;;13.23;11.90;;;;;;;19.05;51.70;101398.56;5075253;28;20387;-58
2023/01/15 02:06:07;;;;;;;12.10;10.80;;;;;;;19.05;51.61;101390.50;5075744;28;20040;-58
2023/01/15 02:08:38;;;;;;;13.68;12.15;;;;;;;19.05;51.44;101395.03;5075203;28;20414;-50
2023/01/15 02:11:11;;;;;;;13.90;12.52;;;;;;;19.04;51.70;101388.81;5074205;28;20059;-50
2023/01/15 02:14:05;;;;;;;13.32;11.93;;;;;;;19.04;51.58;101386.13;5062550;28;20056;-50
2023/01/15 02:16:42;;;;;;;14.00;12.15;;;;;;;19.04;51.23;101375.41;5055237;28;20041;-50
2023/01/15 02:19:40;;;;;;;11.90;10.77;;;;;;;19.02;51.15;101372.81;5055801;28;20487;-51
2023/01/15 02:22:26;;;;;;;13.13;11.73;;;;;;;19.03;51.30;101370.97;5055334;28;20048;-48
2023/01/15 02:25:14;;;;;;;13.25;11.52;;;;;;;19.01;51.18;101360.38;5053883;28;20055;-49
2023/01/15 02:27:46;;;;;;;12.60;11.30;;;;;;;19.02;51.05;101358.53;5055319;28;20049;-56
2023/01/15 02:30:21;;;;;;;13.43;11.02;;;;;;;19.02;51.27;101361.22;5054181;28;20056;-58
2023/01/15 02:33:02;;;;;;;15.77;11.95;;;;;;;19.01;51.06;101349.63;5053805;28;20060;-58
2023/01/15 02:35:45;;;;;;;13.75;11.52;;;;;;;19.01;50.83;101357.69;5053884;28;20072;-57
2023/01/15 02:38:17;;;;;;;14.37;12.30;;;;;;;19.01;50.99;101360.38;5054181;28;20053;-49
2023/01/15 02:40:51;;;;;;;12.75;10.88;;;;;;;19.01;50.82;101349.63;5054435;28;20052;-51
2023/01/15 02:43:26;;;;;;;13.10;11.77;;;;;;;19.01;50.97;101351.47;5054283;28;20055;-50
2023/01/15 02:45:57;;;;;;;12.43;11.15;;;;;;;19.01;50.79;101354.16;5052903;28;20053;-50
2023/01/15 02:48:28;;;;;;;13.05;11.68;;;;;;;19.01;50.73;101344.28;5053232;28;20044;-57
2023/01/15 02:51:06;;;;;;;12.00;10.60;;;;;;;19.01;50.61;101341.59;5053971;28;20049;-58
2023/01/15 02:53:36;;;;;;;11.27;10.10;;;;;;;19.00;50.68;101325.63;5054127;28;20049;-59
2023/01/15 02:56:10;;;;;;;10.98;9.88;;;;;;;19.00;50.57;101326.47;5053686;28;20063;-58
2023/01/15 02:58:47;;;;;;;12.43;11.02;;;;;;;19.00;50.60;101317.56;5053847;28;20067;-50
2023/01/15 03:01:43;;;;;;;11.63;10.43;;;;;;;19.01;50.63;101313.91;5065365;28;20516;-49
2023/01/15 03:04:30;;;;;;;12.25;11.10;;;;;;;19.00;50.70;101320.25;5073709;28;20056;-53
2023/01/15 03:07:07;;;;;;;13.02;11.63;;;;;;;18.99;50.68;101307.78;5074520;28;20044;-51
2023/01/15 03:09:38;;;;;;;13.82;10.95;;;;;;;19.00;50.89;101298.78;5073321;28;20525;-58
2023/01/15 03:12:27;;;;;;;11.90;10.73;;;;;;;18.99;50.69;101303.25;5074534;28;20048;-59
2023/01/15 03:15:04;;;;;;;13.68;10.80;;;;;;;18.99;50.64;101310.47;5072776;28;20411;-58
2023/01/15 03:17:53;;;;;;;12.55;11.05;;;;;;;18.99;50.79;101297.03;5072906;28;20053;-57
2023/01/15 03:20:26;;;;;;;11.05;9.95;;;;;;;18.99;50.48;101297.91;5074236;28;20048;-50
2023/01/15 03:23:04;;;;;;;15.65;11.07;;;;;;;18.99;50.47;101291.69;5073386;28;20059;-53
2023/01/15 03:25:36;;;;;;;13.90;10.60;;;;;;;18.99;50.52;101297.03;5074090;28;20041;-51
2023/01/15 03:28:04;;;;;;;12.10;10.38;;;;;;;18.98;50.45;101288.16;5074292;28;20135;-57
2023/01/15 03:30:33;;;;;;;10.70;9.70;;;;;;;18.99;50.50;101295.22;5073183;28;20048;-58
2023/01/15 03:33:03;;;;;;;11.35;10.13;;;;;;;18.99;50.31;101289.00;5072692;28;20059;-58
2023/01/15 03:35:52;;;;;;;12.70;10.45;;;;;;;18.99;50.31;101283.63;5052695;28;20059;-59
2023/01/15 03:38:32;;;;;;;12.68;11.38;;;;;;;18.98;50.36;101287.28;5053048;28;20049;-58
2023/01/15 03:41:28;;;;;;;10.18;9.18;;;;;;;18.98;50.57;101284.63;5052629;28;20076;-58
2023/01/15 03:44:15;;;;;;;11.68;10.48;;;;;;;18.99;50.76;101287.16;5052390;28;20048;-59
2023/01/15 03:46:42;;;;;;;11.00;9.93;;;;;;;18.98;50.56;101282.78;5052303;28;20048;-59
2023/01/15 03:49:37;;;;;;;12.52;11.23;;;;;;;18.98;50.44;101279.25;5051496;28;20060;-52
2023/01/15 03:52:34;;;;;;;11.32;10.30;;;;;;;18.98;50.38;101276.56;5052740;28;20052;-50
2023/01/15 03:55:20;;;;;;;12.77;9.48;;;;;;;18.97;50.32;101275.72;5052867;28;20049;-49
2023/01/15 03:58:26;;;;;;;13.63;9.27;;;;;;;18.98;50.56;101273.88;5052519;28;20053;-57
2023/01/15 04:00:58;;;;;;;10.98;9.88;;;;;;;18.97;50.59;101267.66;5056417;28;20524;-58
2023/01/15 04:03:29;;;;;;;11.35;10.15;;;;;;;18.98;50.31;101271.19;5072576;28;20059;-59
2023/01/15 04:06:00;;;;;;;13.43;10.77;;;;;;;18.98;50.26;101276.56;5072372;28;20053;-59
2023/01/15 04:08:32;;;;;;;11.13;9.70;;;;;;;18.97;50.31;101275.72;5072105;28;20057;-52
2023/01/15 04:11:01;;;;;;;11.07;9.80;;;;;;;18.97;50.36;101277.53;5073895;28;20052;-51
2023/01/15 04:13:37;;;;;;;11.63;9.93;;;;;;;18.97;50.20;101262.31;5072332;28;20055;-53
2023/01/15 04:16:04;;;;;;;10.85;9.43;;;;;;;18.97;50.18;101264.97;5072002;28;20048;-53
2023/01/15 04:18:32;;;;;;;12.20;10.15;;;;;;;18.96;50.14;101259.75;5073117;28;20044;-58
2023/01/15 04:20:59;;;;;;;12.40;10.02;;;;;;;18.97;50.22;101258.75;5071986;28;20403;-58
2023/01/15 04:23:28;;;;;;;11.60;10.27;;;;;;;18.97;50.26;101256.09;5051499;28;20045;-58
2023/01/15 04:25:55;;;;;;;12.07;10.13;;;;;;;18.97;50.44;101253.41;5052664;28;20045;-58
2023/01/15 04:28:23;;;;;;;10.50;9.40;;;;;;;18.96;50.17;101243.66;5053311;28;20483;-59
2023/01/15 04:30:50;;;;;;;13.27;10.73;;;;;;;18.96;50.10;101232.91;5052871;28;20533;-59
2023/01/15 04:33:17;;;;;;;13.77;10.45;;;;;;;18.97;50.18;101231.94;5055205;28;20048;-59
2023/01/15 04:35:47;;;;;;;10.38;9.20;;;;;;;18.96;50.10;101236.44;5072814;28;20482;-59
2023/01/15 04:38:14;;;;;;;13.20;10.25;;;;;;;18.96;50.10;101235.59;5073291;28;20044;-54
2023/01/15 04:46:14;;;;;;;11.05;9.95;;;;;;;18.96;49.96;101214.13;5071516;28;20056;-50
2023/01/15 04:48:41;;;;;;;10.68;9.68;;;;;;;18.95;49.85;101201.66;5072529;28;20466;-58
2023/01/15 04:51:08;;;;;;;11.15;9.60;;;;;;;18.94;49.98;101198.13;5072176;28;20044;-59
2023/01/15 04:53:35;;;;;;;10.82;9.73;;;;;;;18.95;49.96;101207.03;5072937;28;20048;-59
2023/01/15 04:56:04;;;;;;;12.82;9.70;;;;;;;18.95;49.92;101205.22;5072989;28;20040;-59
2023/01/15 04:58:32;;;;;;;9.90;8.90;;;;;;;18.94;50.14;101206.19;5072895;28;20048;-50
2023/01/15 05:01:00;;;;;;;10.07;9.05;;;;;;;18.94;50.10;101211.56;5072767;28;20048;-51
2023/01/15 05:03:30;;;;;;;9.95;8.68;;;;;;;18.93;50.22;101198.28;5073250;28;20049;-51
2023/01/15 05:06:01;;;;;;;9.57;8.68;;;;;;;18.93;50.16;101191.06;5072890;28;20040;-55
2023/01/15 05:08:29;;;;;;;12.82;8.93;;;;;;;18.93;50.10;101193.75;5072862;28;20052;-58
2023/01/15 05:11:04;;;;;;;9.57;8.60;;;;;;;18.93;50.15;101195.59;5072421;28;20406;-58
2023/01/15 05:13:32;;;;;;;10.48;8.90;;;;;;;18.94;50.23;101191.91;5073005;28;20059;-58
2023/01/15 05:16:27;;;;;;;9.80;8.80;;;;;;;18.93;50.13;101187.53;5076347;28;20045;-59
2023/01/15 05:18:59;;;;;;;11.35;8.88;;;;;;;18.93;50.12;101195.59;5075571;28;20486;-58
2023/01/15 05:21:30;;;;;;;9.65;8.55;;;;;;;18.92;50.18;101194.75;5076354;28;20045;-59
2023/01/15 05:24:00;;;;;;;10.60;9.18;;;;;;;18.92;50.06;101185.81;5076239;28;20051;-59
2023/01/15 05:26:29;;;;;;;11.02;9.52;;;;;;;18.92;50.13;101180.44;5076038;28;20048;-59
2023/01/15 05:28:58;;;;;;;10.60;8.82;;;;;;;18.92;49.99;101177.75;5076339;28;20051;-53
2023/01/15 05:31:27;;;;;;;10.43;8.70;;;;;;;18.92;50.22;101169.72;5076493;28;20466;-50
2023/01/15 05:33:55;;;;;;;10.40;8.70;;;;;;;18.92;49.98;101172.41;5075963;28;20478;-54
2023/01/15 05:36:25;;;;;;;10.00;8.30;;;;;;;18.92;50.03;101165.22;5075953;28;20055;-50
2023/01/15 05:38:53;;;;;;;10.75;9.27;;;;;;;18.91;50.10;101166.19;5076569;28;20375;-58
2023/01/15 05:44:11;;;;;;;9.88;8.52;;;;;;;18.91;49.98;101158.13;5075828;28;20048;-58
2023/01/15 05:46:40;;;;;;;10.35;8.45;;;;;;;18.92;50.09;101161.66;5076239;28;20045;-57
2023/01/15 05:49:10;;;;;;;9.70;8.70;;;;;;;18.92;50.01;101161.66;5075328;28;20049;-57
2023/01/15 05:51:38;;;;;;;10.20;9.10;;;;;;;18.90;50.13;101156.44;5055426;28;20056;-59
2023/01/15 05:54:08;;;;;;;9.05;7.75;;;;;;;18.91;50.05;101157.28;5055821;28;20494;-59
2023/01/15 05:56:36;;;;;;;9.98;8.95;;;;;;;18.91;50.04;101163.50;5055487;28;20049;-59
2023/01/15 05:59:04;;;;;;;10.85;9.23;;;;;;;18.92;50.21;101161.66;5055742;28;20049;-58
2023/01/15 06:01:32;;;;;;;9.23;8.32;;;;;;;18.89;50.22;101157.41;5065386;28;20051;-58
2023/01/15 06:04:00;;;;;;;9.18;7.85;;;;;;;18.91;50.22;101162.66;5075484;28;20406;-58
2023/01/15 06:06:29;;;;;;;12.55;8.38;;;;;;;18.91;50.21;101168.00;5075889;28;20036;-58
2023/01/15 06:08:56;;;;;;;9.38;7.85;;;;;;;18.89;50.21;101176.19;5075630;28;20067;-51
2023/01/15 06:11:24;;;;;;;9.77;8.35;;;;;;;18.89;50.22;101175.34;5075402;28;20059;-48
2023/01/15 06:13:51;;;;;;;8.70;7.63;;;;;;;18.89;50.29;101172.66;5075717;28;20044;-50
2023/01/15 06:16:19;;;;;;;10.38;8.48;;;;;;;18.88;50.10;101177.19;5075329;28;20052;-50
2023/01/15 06:19:05;;;;;;;;;;;;;;;;;;;;;
2023/01/15 06:21:34;;;;;;;11.07;8.30;;;;;;;18.88;50.20;101171.81;5074950;28;20061;-48
2023/01/15 06:24:02;;;;;;;9.88;8.02;;;;;;;18.89;50.23;101164.59;5075520;28;20049;-49
2023/01/15 06:26:30;;;;;;;10.23;8.50;;;;;;;18.88;50.27;101170.94;5075152;28;20048;-50
2023/01/15 06:28:57;;;;;;;9.35;8.15;;;;;;;18.89;50.23;101172.66;5075245;28;20044;-49
2023/01/15 06:31:28;;;;;;;10.25;8.00;;;;;;;18.88;50.27;101168.25;5075458;28;20056;-53
2023/01/15 06:33:55;;;;;;;9.57;7.95;;;;;;;18.87;50.14;101161.19;5067279;28;20052;-48
2023/01/15 06:36:24;;;;;;;9.68;7.90;;;;;;;18.88;50.25;101150.34;5054865;28;20041;-49
2023/01/15 06:38:52;;;;;;;7.80;7.07;;;;;;;18.87;50.15;101145.94;5055331;28;20045;-51
2023/01/15 06:47:21;;;;;;;9.25;8.35;;;;;;;18.87;50.05;101137.03;5053631;28;20041;-50
2023/01/15 06:49:50;;;;;;;9.45;8.23;;;;;;;18.87;49.91;101134.34;5054410;28;20479;-51
2023/01/15 06:52:17;;;;;;;9.82;8.32;;;;;;;18.87;49.80;101126.31;5053361;28;20060;-52
2023/01/15 06:54:44;;;;;;;10.95;8.68;;;;;;;18.87;49.87;101118.25;5054451;28;20052;-54
2023/01/15 06:57:12;;;;;;;9.60;8.20;;;;;;;18.86;49.92;101114.72;5054233;28;20403;-52
2023/01/15 06:59:39;;;;;;;9.50;7.97;;;;;;;18.86;49.82;101113.88;5054577;28;20048;-58
2023/01/15 07:02:08;;;;;;;9.27;8.38;;;;;;;18.86;49.82;101098.63;5054151;28;20045;-59
2023/01/15 07:04:36;;;;;;;9.48;7.80;;;;;;;18.87;49.69;101102.16;5054079;28;20044;-59
2023/01/15 07:07:03;;;;;;;9.70;8.68;;;;;;;18.85;49.83;101102.28;5054805;28;20589;-58
2023/01/15 07:09:30;;;;;;;9.23;8.32;;;;;;;18.85;49.78;101107.66;5054543;28;20402;-51
2023/01/15 07:11:58;;;;;;;9.15;8.25;;;;;;;18.86;49.81;101104.00;5054207;28;20048;-53
2023/01/15 07:14:30;;;;;;;11.75;8.70;;;;;;;18.85;49.78;101088.88;5054684;28;20052;-51
2023/01/15 07:17:03;;;;;;;9.88;8.35;;;;;;;18.86;49.75;101119.25;5054442;28;20392;-53
2023/01/15 07:19:30;;;;;;;9.77;8.18;;;;;;;18.86;49.87;101127.28;5054950;28;20065;-58
2023/01/15 07:21:57;;;;;;;8.88;7.38;;;;;;;18.85;49.97;101125.59;5062553;28;20402;-59
2023/01/15 07:24:25;;;;;;;9.40;8.15;;;;;;;18.85;49.92;101112.19;5073762;28;20056;-59
2023/01/15 07:26:52;;;;;;;8.52;7.63;;;;;;;18.86;49.90;101100.47;5073933;28;20045;-58
2023/01/15 07:29:20;;;;;;;8.95;8.05;;;;;;;18.86;49.91;101100.47;5074626;28;20410;-58
2023/01/15 07:31:48;;;;;;;9.80;8.07;;;;;;;18.85;49.77;101099.63;5073573;28;20494;-58
2023/01/15 07:34:15;;;;;;;10.48;7.95;;;;;;;18.85;49.84;101106.81;5073724;28;20487;-58
2023/01/15 07:36:43;;;;;;;9.30;8.30;;;;;;;18.86;49.86;101100.47;5073471;28;20044;-58
2023/01/15 07:39:10;;;;;;;10.43;8.75;;;;;;;18.86;50.02;101097.78;5074323;28;20056;-58
2023/01/15 07:50:06;;;;;;;8.60;6.93;;;;;;;18.85;49.98;101101.44;5073794;28;20041;-58
2023/01/15 07:52:34;;;;;;;8.90;8.00;;;;;;;18.85;50.00;101109.50;5071889;28;20052;-58
2023/01/15 07:55:02;;;;;;;9.23;8.32;;;;;;;18.84;50.10;101087.19;5073497;28;20048;-59
2023/01/15 07:57:30;;;;;;;10.77;8.30;;;;;;;18.85;49.82;101086.19;5073612;28;20497;-58
2023/01/15 07:59:57;;;;;;;9.25;8.27;;;;;;;18.85;49.93;101114.84;5073269;28;20045;-53
2023/01/15 08:02:24;;;;;;;8.45;7.57;;;;;;;18.86;49.80;101113.88;5073185;28;20044;-53
2023/01/15 08:04:52;;;;;;;10.27;7.97;;;;;;;18.84;49.72;101091.66;5073148;28;20048;-53
2023/01/15 08:07:19;;;;;;;10.00;7.93;;;;;;;18.85;50.11;101099.63;5072973;28;20390;-56
2023/01/15 08:09:46;;;;;;;8.45;7.65;;;;;;;18.86;50.09;101085.22;5066654;28;20462;-56
2023/01/15 08:15:11;;;;;;;18.35;16.42;;;;;;;18.82;47.25;101088.28;5058663;28;20063;-54
2023/01/15 08:17:44;;;;;;;13.05;11.50;;;;;;;18.77;48.45;101081.44;5073520;28;20494;-57
2023/01/15 08:20:24;;;;;;;12.27;9.30;;;;;;;18.78;49.70;101083.16;5060541;28;20044;-56
2023/01/15 08:22:52;;;;;;;11.52;8.98;;;;;;;18.81;49.81;101086.56;5053072;28;20048;-59
2023/01/15 08:25:22;;;;;;;9.75;8.75;;;;;;;18.82;50.02;101074.84;5053357;28;20045;-59
2023/01/15 08:27:52;;;;;;;10.52;9.05;;;;;;;18.83;50.04;101079.25;5053052;28;20045;-57
2023/01/15 08:30:22;;;;;;;9.25;8.27;;;;;;;18.84;49.96;101079.13;5053010;28;20041;-54
2023/01/15 08:32:50;;;;;;;10.90;8.70;;;;;;;18.85;50.06;101077.31;5067036;28;20056;-56
2023/01/15 08:35:17;;;;;;;9.32;8.43;;;;;;;18.87;50.25;101061.94;5054414;28;20055;-54
2023/01/15 08:37:45;;;;;;;10.35;8.35;;;;;;;18.87;50.30;101072.66;5052803;28;20045;-57
2023/01/15 08:40:12;;;;;;;12.38;8.60;;;;;;;18.89;50.24;101084.13;5052647;28;20402;-56
2023/01/15 08:42:40;;;;;;;9.75;8.55;;;;;;;18.88;50.27;101055.56;5052640;28;20057;-54
2023/01/15 08:45:08;;;;;;;11.15;8.65;;;;;;;18.89;50.18;101062.66;5052573;28;20049;-56
2023/01/15 08:47:36;;;;;;;9.32;7.68;;;;;;;18.89;50.25;101052.78;5052651;28;20056;-57
2023/01/15 08:50:06;;;;;;;8.38;7.57;;;;;;;18.90;50.41;101053.63;5055513;28;20045;-55
2023/01/15 08:52:33;;;;;;;9.43;8.30;;;;;;;18.90;50.36;101069.72;5056512;28;20045;-55
2023/01/15 08:55:01;;;;;;;9.25;8.25;;;;;;;18.91;50.37;101061.56;5073680;28;20049;-53
2023/01/15 08:57:28;;;;;;;9.68;8.57;;;;;;;18.92;50.32;101051.66;5076800;28;20055;-55
2023/01/15 08:59:55;;;;;;;13.20;9.10;;;;;;;18.92;50.17;101054.34;5076933;28;20041;-58
2023/01/15 09:02:22;;;;;;;19.33;12.77;;;;;;;18.90;49.29;101054.50;5076732;28;20041;-55
2023/01/15 09:04:51;;;;;;;14.02;10.90;;;;;;;18.89;49.58;101054.63;5076658;28;20387;-56
2023/01/15 09:07:19;;;;;;;13.18;10.45;;;;;;;18.90;49.67;101064.38;5076967;28;20044;-56
2023/01/15 09:09:46;;;;;;;14.57;12.63;;;;;;;18.88;48.99;101060.94;5057966;28;20049;-55
2023/01/15 09:12:14;;;;;;;14.77;12.63;;;;;;;18.88;49.23;101047.53;5056231;28;20068;-58
2023/01/15 09:14:41;;;;;;;19.15;17.20;;;;;;;18.86;47.96;101049.50;5056314;28;20091;-58
2023/01/15 09:17:30;;;;;;;26.67;21.27;;;;;;;18.85;46.09;101050.47;5056745;28;20055;-55
2023/01/15 09:19:57;;;;;;;30.05;26.30;;;;;;;18.71;45.39;101040.84;5056490;28;20053;-59
2023/01/15 09:22:28;;;;;;;24.48;20.08;;;;;;;18.69;46.70;101032.91;5056330;28;20048;-59
2023/01/15 09:24:56;;;;;;;24.80;18.55;;;;;;;18.68;47.53;101031.19;5057114;28;20060;-59
2023/01/15 09:27:23;;;;;;;18.95;16.92;;;;;;;18.69;47.64;101040.09;5071632;28;20044;-59
2023/01/15 09:29:50;;;;;;;22.80;18.73;;;;;;;18.71;47.49;101043.53;5076290;28;20044;-59
2023/01/15 09:32:18;;;;;;;22.35;16.30;;;;;;;18.74;48.05;101037.91;5076051;28;20067;-59
2023/01/15 09:34:45;;;;;;;16.08;13.98;;;;;;;18.76;49.26;101046.72;5062014;28;20056;-59
2023/01/15 09:37:13;;;;;;;16.10;14.30;;;;;;;18.76;49.34;101047.56;5055966;28;20571;-59
2023/01/15 09:39:40;;;;;;;34.17;19.23;;;;;;;18.76;49.66;101042.19;5056408;28;20049;-58
2023/01/15 09:42:16;;;;;;;21.40;15.07;;;;;;;18.77;50.92;101014.41;5055665;28;20057;-59
2023/01/15 09:45:08;;;;;;;16.00;13.68;;;;;;;18.76;52.39;101001.97;5055861;28;20040;-58
2023/01/15 09:47:59;;;;;;;16.60;13.55;;;;;;;18.77;52.52;101027.81;5055901;28;20051;-59
2023/01/15 09:50:58;;;;;;;15.70;13.57;;;;;;;18.80;52.49;101032.09;5042087;28;20057;-57
2023/01/15 09:53:55;;;;;;;16.48;13.63;;;;;;;18.80;52.10;101015.09;5058388;28;20587;-49
2023/01/15 09:56:26;;;;;;;16.42;13.10;;;;;;;18.81;52.69;101006.97;5069655;28;20402;-54
2023/01/15 09:58:56;;;;;;;17.48;14.32;;;;;;;18.81;52.73;101000.75;5068615;28;20048;-54
2023/01/15 10:01:29;;;;;;;18.00;13.60;;;;;;;18.82;52.28;100989.03;5057281;28;20763;-53
2023/01/15 10:03:57;;;;;;;;;;;;;;;18.82;52.94;100971.09;5075886;28;20056;-56
2023/01/15 10:06:47;;;;;;;19.08;15.52;;;;;;;18.83;52.97;100974.63;5074911;28;19927;-54
2023/01/15 10:09:23;;;;;;;16.80;14.43;;;;;;;18.83;52.37;100977.31;5075483;28;20036;-57
2023/01/15 10:14:53;;;;;;;18.27;13.98;;;;;;;18.82;52.65;100955.00;5055610;28;20044;-51
2023/01/15 10:17:26;;;;;;;31.58;28.20;;;;;;;18.76;47.67;100942.13;5055184;28;20048;-56
2023/01/15 10:19:53;;;;;;;27.85;22.38;;;;;;;18.69;49.47;100941.72;5055691;28;20045;-55
2023/01/15 10:22:21;;;;;;;20.52;18.42;;;;;;;18.68;50.72;100945.38;5055102;28;20411;-57
2023/01/15 10:24:56;;;;;;;17.42;15.68;;;;;;;18.71;51.17;100960.38;5054852;28;20060;-55
2023/01/15 10:27:28;;;;;;;16.95;15.13;;;;;;;18.71;51.89;100952.34;5055454;28;20041;-54
2023/01/15 10:30:14;;;;;;;16.63;14.95;;;;;;;18.74;51.97;100944.06;5055247;28;20048;-52
2023/01/15 10:32:48;;;;;;;27.90;24.92;;;;;;;18.73;48.20;100937.00;5054860;28;20052;-57
2023/01/15 10:35:37;;;;;;;20.10;18.15;;;;;;;18.67;49.37;100930.25;5055135;28;20056;-56
2023/01/15 10:38:12;;;;;;;18.30;16.40;;;;;;;18.68;50.69;100933.81;5055279;28;20041;-57
2023/01/15 10:40:43;;;;;;;25.70;23.00;;;;;;;18.67;47.97;100926.72;5054756;28;20049;-52
2023/01/15 10:43:41;;;;;;;34.47;24.45;;;;;;;18.62;48.24;100923.56;5054603;28;20498;-52
2023/01/15 10:46:18;;;;;;;19.13;16.65;;;;;;;18.63;50.70;100920.75;5054773;28;20045;-54
2023/01/15 10:48:52;;;;;;;18.13;15.65;;;;;;;18.65;51.25;100915.28;5055225;28;20040;-57
2023/01/15 10:51:26;;;;;;;17.55;15.20;;;;;;;18.66;51.45;100915.16;5054872;28;20049;-59
2023/01/15 10:54:12;;;;;;;24.55;21.98;;;;;;;18.65;48.80;100901.88;5061688;28;20056;-57
2023/01/15 10:56:57;;;;;;;20.48;18.17;;;;;;;18.65;49.99;100905.41;5053280;28;20059;-57
2023/01/15 10:59:34;;;;;;;18.10;16.20;;;;;;;18.67;51.67;100903.44;5054559;28;20052;-57
2023/01/15 11:02:14;;;;;;;17.05;15.30;;;;;;;18.69;51.49;100887.25;5054723;28;20048;-57
2023/01/15 11:04:42;;;;;;;26.67;23.90;;;;;;;18.71;48.23;100871.88;5054331;28;20056;-55
2023/01/15 11:07:12;;;;;;;28.35;25.25;;;;;;;18.62;47.92;100878.84;5054018;28;20053;-57
2023/01/15 11:09:40;;;;;;;20.83;18.50;;;;;;;18.63;50.18;100868.97;5054359;28;20045;-49
2023/01/15 11:20:35;;;;;;;22.52;20.15;;;;;;;18.54;49.36;100863.38;5053963;28;20048;-50
2023/01/15 11:23:07;;;;;;;;;;;;;;;18.57;49.74;100854.25;5054135;28;20049;-53
2023/01/15 11:25:35;;;;;;;26.02;22.67;;;;;;;18.58;48.06;100852.41;5053966;28;19921;-51
2023/01/15 11:28:05;;;;;;;22.52;20.23;;;;;;;18.54;48.23;100846.44;5071227;28;20068;-58
2023/01/15 11:30:38;;;;;;;19.42;17.42;;;;;;;18.57;49.13;100850.72;5073911;28;20383;-56
2023/01/15 11:33:21;;;;;;;19.83;17.08;;;;;;;18.59;49.90;100844.22;5073262;28;20045;-57
2023/01/15 11:35:51;;;;;;;22.20;19.80;;;;;;;18.59;48.48;100835.34;5054310;28;20052;-56
2023/01/15 11:38:21;;;;;;;20.38;18.20;;;;;;;18.60;49.03;100840.59;5053926;28;20057;-51
2023/01/15 11:40:53;;;;;;;17.70;15.75;;;;;;;18.63;49.42;100831.41;5053670;28;20045;-56
2023/01/15 11:52:28;;;;;;;15.75;13.82;;;;;;;18.72;50.02;100819.97;5062626;28;20048;-55
2023/01/15 11:55:01;;;;;;;17.45;14.55;;;;;;;18.74;49.79;100816.16;5064518;28;20041;-57
2023/01/15 11:57:31;;;;;;;16.38;14.68;;;;;;;18.75;49.35;100804.47;5052327;28;20060;-57
2023/01/15 11:59:58;;;;;;;26.02;23.23;;;;;;;18.71;47.07;100794.97;5057293;28;20474;-60
2023/01/15 12:05:21;;;;;;;17.77;16.00;;;;;;;18.66;49.17;100781.06;5073514;28;20048;-61
2023/01/15 12:07:52;;;;;;;15.27;13.77;;;;;;;18.68;49.54;100787.16;5073390;28;20067;-59
2023/01/15 12:13:19;;;;;;;14.35;12.85;;;;;;;18.70;49.81;100787.91;5073685;28;20057;-60
2023/01/15 12:15:53;;;;;;;15.40;13.40;;;;;;;18.73;50.27;100778.78;5072574;28;20045;-60
2023/01/15 12:18:42;;;;;;;13.77;11.43;;;;;;;18.75;51.25;100779.47;5064247;28;20056;-57
2023/01/15 12:21:34;;;;;;;14.00;12.05;;;;;;;18.76;52.50;100762.44;5054197;28;20048;-57
2023/01/15 12:24:30;;;;;;;20.83;12.65;;;;;;;18.77;52.63;100759.59;5072290;28;20053;-56
2023/01/15 12:27:07;;;;;;;14.48;12.52;;;;;;;18.78;52.39;100755.94;5073301;28;20048;-56
2023/01/15 12:30:13;;;;;;;22.52;11.80;;;;;;;18.80;52.07;100747.78;5073048;28;20048;-60
2023/01/15 12:32:45;;;;;;;14.07;12.65;;;;;;;18.80;51.97;100734.38;5030870;28;20045;-61
2023/01/15 12:35:23;;;;;;;13.93;12.30;;;;;;;18.83;51.79;100733.22;5013177;28;20054;-61